Monday, August 31, 2015, 5:43 PM EDT

KMDT, Harrisburg International Airport

Location: Middletown, PA, United States Lat: 40.2
Local Time: 5:43 PM EDT (21:43 GMT) Lon: -76.767
Time Zone: US/Eastern Elev: 308 ft

Show me the last for .
Show Decoded

2015-08-31 16:56 METAR KMDT 312056Z 21003KT 10SM FEW050 SCT150 BKN250 31/22 A3000 =
2015-08-31 15:56 METAR KMDT 311956Z VRB06KT 10SM SCT050 BKN200 28/21 A3001 =
2015-08-31 14:56 METAR KMDT 311856Z 00000KT 10SM SCT049 SCT080 BKN200 32/19 A3002 =
2015-08-31 13:56 METAR KMDT 311756Z 00000KT 10SM SCT030 BKN200 30/20 A3004 =
2015-08-31 12:56 METAR KMDT 311656Z VRB03KT 10SM FEW025 BKN200 30/19 A3006 RMK AO2 SLP176
                 T03000194 =
2015-08-31 11:56 METAR KMDT 311556Z 00000KT 10SM CLR 28/21 A3008 =
2015-08-31 10:56 METAR KMDT 311456Z 00000KT 10SM SCT085 BKN200 27/20 A3008 =
2015-08-31 09:56 METAR KMDT 311356Z 31005KT 10SM SCT085 25/19 A3008 RMK AO2 SLP183 T02500194 =
2015-08-31 08:56 METAR KMDT 311256Z 00000KT 10SM BKN110 24/19 A3008 RMK AO2 SLP183 T02440194 =
2015-08-31 07:56 METAR KMDT 311156Z 00000KT 10SM SCT100 OVC200 23/19 A3007 RMK AO2 SLP181
                 T02330194 10233 20217 53009 =
2015-08-31 06:56 METAR KMDT 311056Z 00000KT 10SM OVC200 23/19 A3006 =
2015-08-31 04:56 METAR KMDT 310856Z 00000KT 10SM OVC200 23/19 A3004 RMK AO2 SLP171 T02280194
                 55004 $ =
2015-08-31 03:56 METAR KMDT 310756Z 00000KT 10SM FEW120 SCT200 BKN250 22/19 A3004 RMK AO2 SLP170
                 T02220194 $ =
2015-08-31 02:56 METAR KMDT 310656Z 00000KT 10SM FEW110 BKN210 BKN250 22/19 A3004 =
2015-08-31 01:56 METAR KMDT 310556Z 29003KT 10SM BKN120 OVC250 23/19 A3005 =
2015-08-31 00:56 METAR KMDT 310456Z 00000KT 10SM BKN110 OVC140 24/19 A3006 RMK AO2 SLP177
                 T02390189 403170194 $ =
2015-08-30 23:56 METAR KMDT 310356Z 14003KT 10SM SCT100 BKN130 OVC250 24/19 A3006 =
2015-08-30 22:56 METAR KMDT 310256Z 00000KT 10SM BKN100 OVC200 25/19 A3006 RMK AO2 SLP178
                 T02500194 50014 $ =
2015-08-30 21:56 METAR KMDT 310156Z 31004KT 10SM FEW110 OVC200 25/18 A3007 =
2015-08-30 20:56 METAR KMDT 310056Z 23008KT 10SM FEW110 OVC250 26/18 A3005 =
2015-08-30 19:56 METAR KMDT 302356Z 22012KT 10SM SCT120 OVC250 27/19 A3002 RMK AO2 SLP164
                 T02670194 10317 20267 55001 $ =
2015-08-30 18:56 METAR KMDT 302256Z 20003KT 10SM SCT120 BKN250 28/22 A3002 =
2015-08-30 17:56 METAR KMDT 302156Z 00000KT 10SM FEW120 BKN250 31/20 A3001 RMK AO2 SLP162
                 T03060200 $ =

Support USWX by starting your Amazon purchase here.